Time;durP1;ratioP1;P1;durP2;ratioP2;P2;SDS_P1;SDS_P2;PMS_P1;PMS_P2;Temp;Humidity;BMP_temperature;BMP_pressure;BME280_temperature;BME280_humidity;BME280_pressure;Samples;Min_cycle;Max_cycle;Signal;HPM_P1;HPM_P2
2022/10/29 00:01:20;;;;;;;37.75;17.98;;;;;;;;;;5012461;28;20458;-78
2022/10/29 00:03:48;;;;;;;43.25;20.95;;;;;;;;;;5010948;28;20037;-79
2022/10/29 00:06:15;;;;;;;34.08;18.08;;;;;;;;;;5025742;28;20121;-78
2022/10/29 00:08:41;;;;;;;42.17;18.95;;;;;;;;;;5013994;28;20025;-79
2022/10/29 00:11:10;;;;;;;34.88;20.52;;;;;;;;;;5010762;28;20100;-78
2022/10/29 00:13:37;;;;;;;32.75;18.20;;;;;;;;;;5026035;28;20423;-79
2022/10/29 00:16:04;;;;;;;29.35;16.80;;;;;;;;;;5026216;28;20024;-78
2022/10/29 00:18:30;;;;;;;33.45;16.48;;;;;;;;;;5026062;28;20068;-79
2022/10/29 00:21:00;;;;;;;29.30;18.85;;;;;;;;;;5031795;28;20033;-79
2022/10/29 00:23:26;;;;;;;31.17;16.98;;;;;;;;;;5010973;28;20056;-79
2022/10/29 00:25:55;;;;;;;33.90;18.08;;;;;;;;;;5012132;28;20442;-78
2022/10/29 00:28:21;;;;;;;37.13;17.08;;;;;;;;;;5027217;28;20323;-78
2022/10/29 00:30:47;;;;;;;29.48;16.30;;;;;;;;;;5007025;28;20490;-78
2022/10/29 00:33:15;;;;;;;24.40;16.67;;;;;;;;;;5026205;28;20035;-78
2022/10/29 00:35:41;;;;;;;32.75;16.65;;;;;;;;;;5015851;28;20103;-79
2022/10/29 00:38:07;;;;;;;31.35;16.02;;;;;;;;;;5008499;28;20041;-78
2022/10/29 00:40:37;;;;;;;32.75;15.27;;;;;;;;;;5010083;28;20025;-78
2022/10/29 00:43:17;;;;;;;28.08;12.77;;;;;;;;;;5031766;28;20030;-78
2022/10/29 00:45:50;;;;;;;29.48;15.15;;;;;;;;;;5016087;28;20137;-79
2022/10/29 00:48:16;;;;;;;29.95;14.35;;;;;;;;;;5030073;28;20029;-78
2022/10/29 00:50:45;;;;;;;26.33;13.85;;;;;;;;;;5015420;28;20102;-79
2022/10/29 00:53:11;;;;;;;30.45;15.32;;;;;;;;;;5008466;28;20056;-78
2022/10/29 00:55:37;;;;;;;29.45;14.30;;;;;;;;;;5010488;28;20033;-79
2022/10/29 00:58:06;;;;;;;30.73;15.90;;;;;;;;;;5013347;28;20434;-79
2022/10/29 01:00:32;;;;;;;28.38;13.90;;;;;;;;;;5022637;28;20451;-78
2022/10/29 01:02:58;;;;;;;26.02;15.15;;;;;;;;;;5008288;28;20357;-78
2022/10/29 01:05:25;;;;;;;31.48;16.50;;;;;;;;;;5026053;28;20083;-78
2022/10/29 01:07:51;;;;;;;30.80;15.65;;;;;;;;;;5025309;28;20026;-78
2022/10/29 01:10:19;;;;;;;26.33;14.32;;;;;;;;;;5011459;28;20025;-78
2022/10/29 01:13:04;;;;;;;27.25;13.70;;;;;;;;;;5007695;28;20113;-78
2022/10/29 01:15:33;;;;;;;22.55;12.35;;;;;;;;;;5027249;28;20069;-79
2022/10/29 01:18:13;;;;;;;26.60;12.95;;;;;;;;;;5007575;28;20037;-78
2022/10/29 01:20:48;;;;;;;27.48;14.02;;;;;;;;;;5022086;28;20025;-78
2022/10/29 01:23:14;;;;;;;25.55;13.60;;;;;;;;;;5007544;28;20096;-78
2022/10/29 01:25:59;;;;;;;29.02;14.38;;;;;;;;;;5007845;28;20061;-78
2022/10/29 01:28:34;;;;;;;30.20;14.57;;;;;;;;;;5022052;28;20026;-78
2022/10/29 01:31:19;;;;;;;23.38;14.57;;;;;;;;;;5012361;28;20056;-78
2022/10/29 01:34:04;;;;;;;25.67;12.93;;;;;;;;;;5023334;28;20125;-79
2022/10/29 01:36:40;;;;;;;23.25;14.18;;;;;;;;;;5009525;28;20449;-78
2022/10/29 01:39:08;;;;;;;27.23;14.95;;;;;;;;;;5009900;28;20438;-78
2022/10/29 01:41:40;;;;;;;27.40;14.27;;;;;;;;;;5008476;28;20029;-78
2022/10/29 01:44:25;;;;;;;31.60;14.63;;;;;;;;;;5010642;28;20030;-79
2022/10/29 01:46:57;;;;;;;24.40;14.02;;;;;;;;;;5025194;28;20446;-78
2022/10/29 01:49:31;;;;;;;22.30;14.00;;;;;;;;;;5028971;28;20041;-78
2022/10/29 01:52:00;;;;;;;23.00;13.90;;;;;;;;;;5013010;28;20037;-78
2022/10/29 01:54:26;;;;;;;23.50;13.30;;;;;;;;;;5016681;28;20470;-79
2022/10/29 01:56:56;;;;;;;26.25;14.43;;;;;;;;;;5025789;28;20443;-78
2022/10/29 01:59:24;;;;;;;26.55;13.23;;;;;;;;;;5029358;28;20029;-79
2022/10/29 02:02:02;;;;;;;28.15;12.43;;;;;;;;;;5026229;28;20034;-78
2022/10/29 02:04:36;;;;;;;23.25;12.32;;;;;;;;;;5012584;28;20052;-79
2022/10/29 02:07:14;;;;;;;32.03;10.90;;;;;;;;;;5012590;28;20026;-78
2022/10/29 02:09:40;;;;;;;23.23;11.70;;;;;;;;;;5031462;28;20457;-78
2022/10/29 02:12:06;;;;;;;33.78;12.27;;;;;;;;;;5015522;28;20029;-78
2022/10/29 02:14:42;;;;;;;26.23;12.45;;;;;;;;;;5027684;28;20043;-78
2022/10/29 02:17:08;;;;;;;22.33;11.73;;;;;;;;;;5025168;28;20056;-78
2022/10/29 02:19:36;;;;;;;30.88;12.68;;;;;;;;;;5025034;28;20080;-78
2022/10/29 02:22:02;;;;;;;27.30;11.50;;;;;;;;;;5014964;28;20504;-79
2022/10/29 02:24:28;;;;;;;27.58;12.00;;;;;;;;;;5018075;28;20064;-78
2022/10/29 02:26:54;;;;;;;28.00;14.35;;;;;;;;;;5025510;28;20030;-78
2022/10/29 02:29:20;;;;;;;27.88;13.13;;;;;;;;;;5012805;28;20464;-78
2022/10/29 02:31:46;;;;;;;31.13;13.55;;;;;;;;;;5029027;28;20517;-78
2022/10/29 02:34:12;;;;;;;30.27;11.75;;;;;;;;;;5023680;28;20328;-78
2022/10/29 02:36:38;;;;;;;27.50;12.82;;;;;;;;;;5016239;28;20030;-78
2022/10/29 02:39:04;;;;;;;25.52;11.65;;;;;;;;;;5027580;28;20037;-79
2022/10/29 02:41:30;;;;;;;24.80;11.63;;;;;;;;;;5012488;28;20450;-79
2022/10/29 02:43:56;;;;;;;22.70;10.07;;;;;;;;;;5022833;28;20084;-79
2022/10/29 02:46:23;;;;;;;21.83;10.45;;;;;;;;;;5025982;28;20065;-78
2022/10/29 02:48:49;;;;;;;25.48;10.15;;;;;;;;;;5024151;28;20036;-78
2022/10/29 02:51:16;;;;;;;24.88;10.93;;;;;;;;;;5009022;28;20030;-78
2022/10/29 02:53:42;;;;;;;27.13;10.88;;;;;;;;;;5014547;28;20072;-78
2022/10/29 02:56:09;;;;;;;20.83;10.60;;;;;;;;;;5030757;28;20030;-78
2022/10/29 02:58:35;;;;;;;23.10;8.73;;;;;;;;;;5016215;28;20115;-78
2022/10/29 03:01:01;;;;;;;17.85;9.32;;;;;;;;;;5013015;28;20792;-79
2022/10/29 03:03:27;;;;;;;27.65;11.02;;;;;;;;;;5009406;28;20033;-78
2022/10/29 03:05:53;;;;;;;20.23;10.90;;;;;;;;;;5012558;28;20096;-79
2022/10/29 03:08:19;;;;;;;23.48;10.45;;;;;;;;;;5029105;28;20025;-78
2022/10/29 03:10:45;;;;;;;27.47;10.40;;;;;;;;;;5026318;28;20026;-78
2022/10/29 03:13:14;;;;;;;27.13;11.20;;;;;;;;;;5025190;28;20100;-78
2022/10/29 03:15:42;;;;;;;24.60;11.98;;;;;;;;;;5024561;28;20505;-79
2022/10/29 03:18:08;;;;;;;31.93;12.40;;;;;;;;;;5027156;28;20037;-78
2022/10/29 03:20:34;;;;;;;25.27;12.27;;;;;;;;;;5017188;28;20099;-78
2022/10/29 03:23:01;;;;;;;29.57;13.13;;;;;;;;;;5024527;28;20034;-78
2022/10/29 03:25:27;;;;;;;25.52;12.05;;;;;;;;;;5029425;28;20033;-78
2022/10/29 03:27:53;;;;;;;26.30;10.20;;;;;;;;;;5029220;28;20030;-78
2022/10/29 03:30:21;;;;;;;29.10;11.97;;;;;;;;;;5014924;28;20021;-77
2022/10/29 03:32:47;;;;;;;23.50;11.33;;;;;;;;;;5011366;28;20029;-78
2022/10/29 03:35:15;;;;;;;29.80;10.73;;;;;;;;;;5013056;28;20479;-78
2022/10/29 03:37:41;;;;;;;29.77;11.43;;;;;;;;;;5025588;28;20068;-78
2022/10/29 03:40:07;;;;;;;24.00;11.47;;;;;;;;;;5025063;28;20029;-79
2022/10/29 03:42:34;;;;;;;28.67;11.17;;;;;;;;;;5025177;28;20062;-79
2022/10/29 03:45:00;;;;;;;22.93;10.87;;;;;;;;;;5012148;28;20026;-78
2022/10/29 03:47:28;;;;;;;22.53;10.83;;;;;;;;;;5012889;28;20121;-79
2022/10/29 03:49:55;;;;;;;20.67;11.30;;;;;;;;;;5012712;28;20094;-78
2022/10/29 03:52:21;;;;;;;28.23;11.80;;;;;;;;;;5024358;28;20029;-79
2022/10/29 03:54:47;;;;;;;23.17;11.60;;;;;;;;;;5029156;28;20041;-78
2022/10/29 03:57:13;;;;;;;40.80;13.03;;;;;;;;;;5028550;28;20386;-78
2022/10/29 03:59:40;;;;;;;31.63;10.47;;;;;;;;;;5006668;28;20093;-78
2022/10/29 04:02:06;;;;;;;28.63;11.30;;;;;;;;;;5012673;28;20068;-78
2022/10/29 04:04:32;;;;;;;25.40;9.53;;;;;;;;;;5014252;28;20033;-78
2022/10/29 04:06:58;;;;;;;22.37;10.63;;;;;;;;;;5023232;28;20038;-79
2022/10/29 04:09:24;;;;;;;23.17;11.33;;;;;;;;;;5026674;28;20026;-78
2022/10/29 04:11:50;;;;;;;22.70;10.73;;;;;;;;;;5027237;28;20030;-78
2022/10/29 04:14:17;;;;;;;29.15;9.48;;;;;;;;;;5011228;28;20040;-78
2022/10/29 04:16:43;;;;;;;22.57;9.10;;;;;;;;;;5013983;28;20036;-80
2022/10/29 04:19:09;;;;;;;22.73;9.53;;;;;;;;;;5023627;28;20369;-78
2022/10/29 04:21:35;;;;;;;31.43;9.77;;;;;;;;;;5013532;28;20048;-78
2022/10/29 04:24:03;;;;;;;22.33;8.90;;;;;;;;;;5011526;28;20052;-79
2022/10/29 04:26:32;;;;;;;28.90;9.10;;;;;;;;;;5012544;28;20033;-78
2022/10/29 04:28:58;;;;;;;25.80;9.33;;;;;;;;;;5013759;28;20030;-79
2022/10/29 04:31:24;;;;;;;19.63;9.20;;;;;;;;;;5010036;28;20033;-78
2022/10/29 04:33:52;;;;;;;24.10;9.60;;;;;;;;;;5017791;28;20033;-79
2022/10/29 04:36:18;;;;;;;19.63;9.37;;;;;;;;;;5012357;28;20025;-78
2022/10/29 04:38:44;;;;;;;19.17;9.02;;;;;;;;;;5010758;28;20029;-78
2022/10/29 04:41:10;;;;;;;23.97;9.23;;;;;;;;;;5025120;28;20099;-78
2022/10/29 04:43:36;;;;;;;29.60;9.70;;;;;;;;;;5008574;28;20056;-79
2022/10/29 04:46:02;;;;;;;23.30;9.50;;;;;;;;;;5009454;28;20029;-78
2022/10/29 04:48:28;;;;;;;16.52;8.75;;;;;;;;;;5017178;28;20503;-78
2022/10/29 04:50:54;;;;;;;19.10;8.37;;;;;;;;;;5011882;28;20030;-78
2022/10/29 04:53:21;;;;;;;23.95;8.77;;;;;;;;;;5026891;28;20025;-78
2022/10/29 04:55:47;;;;;;;28.65;8.68;;;;;;;;;;5025589;28;20064;-78
2022/10/29 04:58:14;;;;;;;28.93;8.63;;;;;;;;;;5022637;28;20030;-79
2022/10/29 05:00:40;;;;;;;24.70;8.40;;;;;;;;;;5022525;28;20034;-78
2022/10/29 05:03:06;;;;;;;19.50;7.70;;;;;;;;;;5024789;28;20044;-78
2022/10/29 05:05:35;;;;;;;24.50;9.02;;;;;;;;;;5011028;28;20401;-78
2022/10/29 05:08:01;;;;;;;31.50;9.40;;;;;;;;;;5022695;28;20030;-79
2022/10/29 05:10:28;;;;;;;22.95;8.25;;;;;;;;;;5027368;28;20033;-78
2022/10/29 05:12:58;;;;;;;27.30;9.27;;;;;;;;;;5025673;28;20026;-79
2022/10/29 05:15:24;;;;;;;20.23;6.55;;;;;;;;;;5008896;28;20029;-78
2022/10/29 05:17:50;;;;;;;27.42;7.38;;;;;;;;;;5023434;28;20034;-78
2022/10/29 05:20:17;;;;;;;19.17;7.95;;;;;;;;;;5023199;28;20366;-78
2022/10/29 05:22:43;;;;;;;19.42;6.72;;;;;;;;;;5014774;28;20045;-78
2022/10/29 05:25:09;;;;;;;25.40;8.68;;;;;;;;;;5011595;28;20030;-78
2022/10/29 05:27:35;;;;;;;29.38;7.97;;;;;;;;;;5029273;28;20041;-78
2022/10/29 05:30:01;;;;;;;21.60;7.22;;;;;;;;;;5023117;28;20032;-79
2022/10/29 05:32:30;;;;;;;22.05;7.88;;;;;;;;;;5023366;28;20033;-78
2022/10/29 05:34:58;;;;;;;19.50;7.95;;;;;;;;;;5022224;28;20477;-79
2022/10/29 05:37:26;;;;;;;26.75;8.45;;;;;;;;;;5026179;28;20065;-78
2022/10/29 05:39:55;;;;;;;18.02;7.65;;;;;;;;;;5007064;28;20117;-78
2022/10/29 05:42:21;;;;;;;20.35;8.90;;;;;;;;;;5024880;28;20029;-78
2022/10/29 05:44:47;;;;;;;15.98;7.13;;;;;;;;;;5023936;28;20072;-78
2022/10/29 05:47:13;;;;;;;21.13;7.43;;;;;;;;;;5025889;28;20401;-78
2022/10/29 05:49:39;;;;;;;16.60;7.45;;;;;;;;;;5020536;28;20025;-78
2022/10/29 05:52:05;;;;;;;28.30;7.28;;;;;;;;;;5006536;28;20036;-79
2022/10/29 05:54:31;;;;;;;17.42;7.18;;;;;;;;;;5007103;28;20037;-78
2022/10/29 05:57:00;;;;;;;26.25;7.07;;;;;;;;;;5006291;28;20029;-78
2022/10/29 05:59:26;;;;;;;19.58;6.97;;;;;;;;;;5005033;28;20026;-79
2022/10/29 06:01:54;;;;;;;22.17;7.80;;;;;;;;;;5006649;28;20041;-78
2022/10/29 06:04:23;;;;;;;19.35;6.82;;;;;;;;;;5020795;28;20034;-78
2022/10/29 06:06:49;;;;;;;28.00;7.13;;;;;;;;;;5005500;28;20025;-78
2022/10/29 06:09:17;;;;;;;22.10;7.22;;;;;;;;;;5023089;28;20435;-78
2022/10/29 06:11:43;;;;;;;18.15;7.10;;;;;;;;;;5012290;28;20033;-78
2022/10/29 06:14:09;;;;;;;22.10;6.55;;;;;;;;;;5011055;28;20021;-78
2022/10/29 06:16:35;;;;;;;15.00;7.32;;;;;;;;;;5006735;28;20033;-78
2022/10/29 06:19:01;;;;;;;18.38;6.93;;;;;;;;;;5007200;28;20026;-78
2022/10/29 06:21:30;;;;;;;18.00;6.65;;;;;;;;;;5007275;28;20038;-78
2022/10/29 06:23:56;;;;;;;22.08;6.93;;;;;;;;;;5030480;28;20034;-78
2022/10/29 06:26:22;;;;;;;19.25;6.60;;;;;;;;;;5030582;28;20441;-78
2022/10/29 06:28:48;;;;;;;19.73;6.80;;;;;;;;;;5014278;28;20034;-78
2022/10/29 06:31:14;;;;;;;26.63;7.72;;;;;;;;;;5012699;28;20018;-79
2022/10/29 06:33:40;;;;;;;26.58;7.35;;;;;;;;;;5025229;28;20354;-80
2022/10/29 06:36:06;;;;;;;20.35;7.93;;;;;;;;;;5026102;28;20461;-78
2022/10/29 06:38:32;;;;;;;21.20;7.32;;;;;;;;;;5019190;28;20048;-79
2022/10/29 06:40:58;;;;;;;19.17;7.40;;;;;;;;;;5017142;28;20040;-78
2022/10/29 06:43:24;;;;;;;22.00;7.57;;;;;;;;;;5016848;28;20460;-79
2022/10/29 06:45:50;;;;;;;23.25;7.15;;;;;;;;;;5017486;28;20025;-78
2022/10/29 06:48:16;;;;;;;23.30;6.57;;;;;;;;;;5007646;28;20034;-78
2022/10/29 06:50:42;;;;;;;26.58;6.90;;;;;;;;;;5012608;28;20026;-79
2022/10/29 06:53:10;;;;;;;20.77;7.75;;;;;;;;;;5011856;28;20029;-79
2022/10/29 06:55:37;;;;;;;19.10;7.28;;;;;;;;;;5025895;28;20041;-78
2022/10/29 06:58:05;;;;;;;24.20;7.53;;;;;;;;;;5027726;28;20026;-79
2022/10/29 07:00:31;;;;;;;20.23;7.28;;;;;;;;;;5027959;28;20072;-78
2022/10/29 07:02:58;;;;;;;26.45;8.80;;;;;;;;;;5012758;28;20037;-79
2022/10/29 07:05:25;;;;;;;24.08;8.77;;;;;;;;;;5011212;28;20025;-78
2022/10/29 07:07:57;;;;;;;23.35;7.68;;;;;;;;;;5023080;28;20022;-78
2022/10/29 07:10:24;;;;;;;26.67;8.45;;;;;;;;;;5025324;28;20025;-79
2022/10/29 07:12:50;;;;;;;24.08;7.82;;;;;;;;;;5012456;28;20053;-79
2022/10/29 07:15:16;;;;;;;27.20;9.23;;;;;;;;;;5026470;28;20037;-78
2022/10/29 07:17:42;;;;;;;26.48;7.75;;;;;;;;;;5026931;28;20037;-78
2022/10/29 07:20:09;;;;;;;20.25;6.97;;;;;;;;;;5013430;28;20099;-78
2022/10/29 07:22:35;;;;;;;19.63;7.60;;;;;;;;;;5022528;28;20092;-79
2022/10/29 07:25:01;;;;;;;20.08;6.60;;;;;;;;;;5011098;28;20045;-79
2022/10/29 07:27:27;;;;;;;24.73;7.35;;;;;;;;;;5023286;28;20370;-77
2022/10/29 07:29:53;;;;;;;26.25;7.07;;;;;;;;;;5029434;28;20343;-78
2022/10/29 07:32:19;;;;;;;22.05;6.72;;;;;;;;;;5024841;28;20041;-78
2022/10/29 07:34:45;;;;;;;24.63;9.10;;;;;;;;;;5010200;28;20097;-79
2022/10/29 07:37:11;;;;;;;19.25;6.82;;;;;;;;;;5040456;23;20042;-78
2022/10/29 07:39:37;;;;;;;18.83;6.70;;;;;;;;;;5019167;28;20066;-79
2022/10/29 07:42:04;;;;;;;21.77;7.72;;;;;;;;;;5007905;28;20041;-79
2022/10/29 07:44:30;;;;;;;19.65;7.65;;;;;;;;;;5018160;28;20038;-78
2022/10/29 07:46:56;;;;;;;24.42;7.50;;;;;;;;;;5024144;28;20033;-78
2022/10/29 07:49:22;;;;;;;33.05;8.20;;;;;;;;;;5004458;28;20031;-78
2022/10/29 07:51:48;;;;;;;21.67;6.25;;;;;;;;;;5017257;28;20021;-78
2022/10/29 07:54:14;;;;;;;23.38;6.28;;;;;;;;;;5019709;28;20026;-78
2022/10/29 07:56:40;;;;;;;16.73;6.63;;;;;;;;;;5019488;28;20088;-79
2022/10/29 07:59:08;;;;;;;15.00;5.68;;;;;;;;;;5020548;28;20034;-79
2022/10/29 08:01:34;;;;;;;21.42;7.38;;;;;;;;;;5021699;28;20026;-78
2022/10/29 08:04:00;;;;;;;20.40;6.97;;;;;;;;;;5020668;28;20052;-78
2022/10/29 08:06:26;;;;;;;23.65;6.38;;;;;;;;;;5000735;28;20025;-79
2022/10/29 08:08:52;;;;;;;21.15;6.60;;;;;;;;;;5018950;28;20413;-78
2022/10/29 08:11:20;;;;;;;18.98;6.03;;;;;;;;;;5018509;28;20029;-79
2022/10/29 08:13:47;;;;;;;17.88;6.28;;;;;;;;;;5019120;28;20029;-79
2022/10/29 08:16:13;;;;;;;15.35;6.28;;;;;;;;;;5019951;28;20026;-78
2022/10/29 08:18:39;;;;;;;23.85;6.22;;;;;;;;;;5014563;28;20239;-78
2022/10/29 08:21:06;;;;;;;15.00;6.35;;;;;;;;;;5019153;28;20036;-78
2022/10/29 08:23:32;;;;;;;18.92;6.43;;;;;;;;;;5003565;28;20034;-78
2022/10/29 08:25:58;;;;;;;17.42;6.00;;;;;;;;;;5023742;28;20029;-79
2022/10/29 08:28:24;;;;;;;18.38;5.95;;;;;;;;;;5017041;28;20030;-79
2022/10/29 08:30:50;;;;;;;21.80;6.22;;;;;;;;;;5020276;28;20034;-78
2022/10/29 08:33:17;;;;;;;26.98;6.65;;;;;;;;;;5022314;28;20413;-78
2022/10/29 08:35:43;;;;;;;25.88;6.00;;;;;;;;;;5023272;28;20065;-79
2022/10/29 08:38:09;;;;;;;31.38;7.88;;;;;;;;;;5021037;28;20033;-79
2022/10/29 08:40:44;;;;;;;22.55;6.63;;;;;;;;;;5020788;28;20039;-78
2022/10/29 08:43:10;;;;;;;14.50;6.50;;;;;;;;;;5019668;28;20053;-79
2022/10/29 08:45:45;;;;;;;27.20;6.28;;;;;;;;;;5001247;28;20127;-78
2022/10/29 08:48:29;;;;;;;20.70;7.22;;;;;;;;;;5019316;28;20060;-78
2022/10/29 08:50:58;;;;;;;23.48;7.70;;;;;;;;;;5020024;28;20072;-79
2022/10/29 08:53:27;;;;;;;18.75;5.72;;;;;;;;;;5018558;28;20040;-78
2022/10/29 08:55:53;;;;;;;19.02;6.03;;;;;;;;;;5000182;28;20030;-79
2022/10/29 08:58:23;;;;;;;18.55;7.32;;;;;;;;;;5001243;28;20029;-78
2022/10/29 09:00:52;;;;;;;17.38;6.70;;;;;;;;;;5016149;28;20030;-79
2022/10/29 09:03:18;;;;;;;24.60;7.28;;;;;;;;;;4999586;28;20082;-79
2022/10/29 09:05:50;;;;;;;22.65;6.38;;;;;;;;;;5014562;28;20120;-78
2022/10/29 09:08:16;;;;;;;21.02;6.00;;;;;;;;;;5022824;28;20022;-78
2022/10/29 09:10:50;;;;;;;18.83;6.35;;;;;;;;;;5017533;28;20047;-78
2022/10/29 09:13:21;;;;;;;18.55;6.22;;;;;;;;;;5017695;28;20533;-79
2022/10/29 09:16:04;;;;;;;19.95;6.20;;;;;;;;;;5016933;28;20030;-78
2022/10/29 09:18:30;;;;;;;12.80;4.93;;;;;;;;;;5017022;28;20429;-79
2022/10/29 09:21:15;;;;;;;15.30;5.95;;;;;;;;;;4999716;28;20092;-79
2022/10/29 09:23:44;;;;;;;25.83;6.43;;;;;;;;;;5017715;28;20072;-79
2022/10/29 09:26:30;;;;;;;15.80;5.90;;;;;;;;;;5015980;28;20025;-78
2022/10/29 09:29:04;;;;;;;18.58;6.05;;;;;;;;;;5018629;28;20453;-80
2022/10/29 09:31:43;;;;;;;16.25;6.20;;;;;;;;;;5019107;28;20041;-79
2022/10/29 09:34:11;;;;;;;22.10;5.72;;;;;;;;;;5020405;28;20026;-79
2022/10/29 09:36:37;;;;;;;17.50;5.22;;;;;;;;;;5017237;28;20026;-79
2022/10/29 09:39:10;;;;;;;20.67;5.30;;;;;;;;;;5018086;28;20029;-79
2022/10/29 09:41:36;;;;;;;;;;;;;;;;;;5001424;28;20181;-79
2022/10/29 09:44:22;;;;;;;18.45;5.88;;;;;;;;;;5002021;28;19909;-78
2022/10/29 09:46:54;;;;;;;21.23;5.72;;;;;;;;;;5013449;28;20022;-78
2022/10/29 09:49:27;;;;;;;16.75;5.28;;;;;;;;;;5014819;28;20121;-79
2022/10/29 09:52:09;;;;;;;15.75;5.38;;;;;;;;;;5019505;28;20044;-78
2022/10/29 09:54:35;;;;;;;24.60;6.80;;;;;;;;;;5025198;28;20026;-79
2022/10/29 09:57:03;;;;;;;24.52;6.25;;;;;;;;;;5002243;28;20037;-78
2022/10/29 09:59:32;;;;;;;20.95;6.43;;;;;;;;;;5015628;28;20762;-78
2022/10/29 10:01:58;;;;;;;15.68;5.45;;;;;;;;;;5018564;28;20475;-79
2022/10/29 10:04:30;;;;;;;20.98;5.40;;;;;;;;;;5017461;28;20045;-79
2022/10/29 10:07:07;;;;;;;11.30;4.93;;;;;;;;;;5015692;28;20041;-80
2022/10/29 10:09:52;;;;;;;17.45;6.22;;;;;;;;;;5023566;28;20037;-79
2022/10/29 10:12:21;;;;;;;18.73;5.82;;;;;;;;;;5013819;28;20061;-77
2022/10/29 10:14:48;;;;;;;18.95;4.80;;;;;;;;;;5019083;28;20179;-79
2022/10/29 10:17:14;;;;;;;18.85;5.63;;;;;;;;;;5023334;28;20022;-79
2022/10/29 10:19:45;;;;;;;15.45;5.75;;;;;;;;;;4998253;28;20026;-79
2022/10/29 10:22:19;;;;;;;12.88;4.93;;;;;;;;;;5022040;28;20457;-79
2022/10/29 10:24:45;;;;;;;28.33;5.75;;;;;;;;;;5017479;28;20440;-79
2022/10/29 10:27:17;;;;;;;21.25;5.07;;;;;;;;;;5003765;28;20413;-79
2022/10/29 10:29:43;;;;;;;;;;;;;;;;;;5021398;28;20026;-79
2022/10/29 10:32:10;;;;;;;18.90;6.28;;;;;;;;;;5021144;28;19971;-78
2022/10/29 10:34:40;;;;;;;20.90;5.57;;;;;;;;;;5023370;28;20105;-79
2022/10/29 10:37:09;;;;;;;14.10;4.75;;;;;;;;;;5019795;28;20034;-79
2022/10/29 10:39:42;;;;;;;16.35;4.97;;;;;;;;;;5020259;28;20090;-79
2022/10/29 10:42:31;;;;;;;15.82;5.47;;;;;;;;;;5004953;28;20536;-79
2022/10/29 10:45:11;;;;;;;19.33;5.10;;;;;;;;;;5023734;28;20026;-79
2022/10/29 10:47:40;;;;;;;19.52;5.40;;;;;;;;;;5019755;28;20033;-79
2022/10/29 10:50:28;;;;;;;14.93;5.65;;;;;;;;;;5021147;28;20175;-78
2022/10/29 10:52:55;;;;;;;14.20;6.10;;;;;;;;;;5019058;28;20057;-79
2022/10/29 10:55:25;;;;;;;17.88;5.85;;;;;;;;;;5017333;28;20029;-79
2022/10/29 10:58:14;;;;;;;15.85;7.60;;;;;;;;;;5019038;28;20389;-79
2022/10/29 11:00:42;;;;;;;16.08;5.20;;;;;;;;;;5004633;28;20050;-79
2022/10/29 11:03:08;;;;;;;18.80;6.22;;;;;;;;;;5005229;28;20029;-79
2022/10/29 11:05:43;;;;;;;21.20;5.28;;;;;;;;;;5006089;28;20367;-79
2022/10/29 11:08:15;;;;;;;20.50;6.00;;;;;;;;;;4998342;28;20021;-79
2022/10/29 11:10:47;;;;;;;15.75;5.57;;;;;;;;;;5019039;28;20026;-79
2022/10/29 11:13:18;;;;;;;20.67;5.85;;;;;;;;;;5019642;28;20030;-79
2022/10/29 11:15:47;;;;;;;12.07;5.15;;;;;;;;;;5020231;28;20096;-79
2022/10/29 11:18:15;;;;;;;14.73;5.90;;;;;;;;;;5007232;28;20080;-79
2022/10/29 11:20:46;;;;;;;18.85;5.97;;;;;;;;;;5024800;28;20045;-79
2022/10/29 11:23:35;;;;;;;18.08;6.10;;;;;;;;;;5004884;28;20022;-78
2022/10/29 11:26:20;;;;;;;17.88;5.20;;;;;;;;;;5017274;28;20029;-78
2022/10/29 11:28:53;;;;;;;18.63;7.35;;;;;;;;;;5023646;28;20029;-79
2022/10/29 11:31:36;;;;;;;17.20;5.47;;;;;;;;;;5019487;28;20026;-79
2022/10/29 11:34:07;;;;;;;17.23;4.97;;;;;;;;;;5020571;28;21012;-79
2022/10/29 11:36:42;;;;;;;16.35;5.78;;;;;;;;;;5015859;28;20843;-79
2022/10/29 11:39:11;;;;;;;18.60;5.30;;;;;;;;;;5002749;28;20106;-78
2022/10/29 11:41:51;;;;;;;18.88;6.05;;;;;;;;;;5019493;28;20032;-78
2022/10/29 11:44:20;;;;;;;13.75;5.15;;;;;;;;;;5022122;28;20061;-79
2022/10/29 11:47:01;;;;;;;16.38;5.60;;;;;;;;;;5024294;28;20025;-79
2022/10/29 11:49:30;;;;;;;17.40;5.05;;;;;;;;;;5019816;28;20538;-79
2022/10/29 11:52:05;;;;;;;22.30;7.85;;;;;;;;;;5015315;28;20022;-79
2022/10/29 11:54:34;;;;;;;26.85;5.45;;;;;;;;;;5017211;28;20412;-79
2022/10/29 11:57:00;;;;;;;15.57;5.07;;;;;;;;;;5015318;28;20101;-79
2022/10/29 11:59:29;;;;;;;14.48;5.78;;;;;;;;;;5018397;28;20498;-78
2022/10/29 12:02:04;;;;;;;22.40;6.38;;;;;;;;;;5001657;28;20366;-79
2022/10/29 12:04:32;;;;;;;11.45;4.93;;;;;;;;;;5014992;28;20037;-78
2022/10/29 12:07:13;;;;;;;21.27;7.65;;;;;;;;;;5018233;28;20498;-79
2022/10/29 12:09:51;;;;;;;18.00;6.82;;;;;;;;;;5019089;28;20026;-79
2022/10/29 12:12:20;;;;;;;12.63;5.10;;;;;;;;;;5015432;28;20026;-80
2022/10/29 12:14:51;;;;;;;18.75;5.40;;;;;;;;;;5018243;28;20029;-80
2022/10/29 12:17:20;;;;;;;21.02;6.18;;;;;;;;;;5003927;28;20033;-79
2022/10/29 12:19:56;;;;;;;18.30;5.32;;;;;;;;;;5016554;28;20565;-80
2022/10/29 12:22:38;;;;;;;16.85;5.00;;;;;;;;;;5017770;28;20030;-80
2022/10/29 12:25:19;;;;;;;17.00;5.35;;;;;;;;;;5005139;28;20021;-79
2022/10/29 12:28:00;;;;;;;18.67;5.15;;;;;;;;;;5016887;28;20055;-81
2022/10/29 12:30:28;;;;;;;14.37;5.90;;;;;;;;;;5013698;28;20026;-81
2022/10/29 12:32:54;;;;;;;12.35;4.43;;;;;;;;;;5018683;28;20030;-80
2022/10/29 12:35:21;;;;;;;12.55;4.70;;;;;;;;;;5021597;28;20037;-80
2022/10/29 12:38:02;;;;;;;12.77;5.65;;;;;;;;;;5016255;28;20038;-80
2022/10/29 12:40:32;;;;;;;16.67;5.25;;;;;;;;;;5016856;28;20037;-80
2022/10/29 12:43:00;;;;;;;14.80;5.35;;;;;;;;;;5000232;28;20034;-80
2022/10/29 12:45:54;;;;;;;24.92;6.07;;;;;;;;;;5019017;28;20029;-80
2022/10/29 12:48:28;;;;;;;19.10;5.50;;;;;;;;;;5018475;28;20061;-80
2022/10/29 12:51:02;;;;;;;16.13;5.07;;;;;;;;;;5001235;28;20095;-80
2022/10/29 12:53:39;;;;;;;15.25;4.97;;;;;;;;;;4993979;28;20026;-80
2022/10/29 12:56:07;;;;;;;20.55;5.80;;;;;;;;;;5016486;28;20030;-80
2022/10/29 12:58:42;;;;;;;14.20;4.47;;;;;;;;;;5013541;28;20037;-81
2022/10/29 13:01:29;;;;;;;18.00;5.40;;;;;;;;;;5019312;28;20032;-79
2022/10/29 13:03:55;;;;;;;18.00;5.50;;;;;;;;;;5017276;28;20065;-79
2022/10/29 13:06:39;;;;;;;15.80;5.40;;;;;;;;;;5017829;28;20412;-81
2022/10/29 13:09:19;;;;;;;19.48;5.50;;;;;;;;;;5020434;28;20029;-81
2022/10/29 13:11:49;;;;;;;18.90;5.03;;;;;;;;;;5017061;28;20132;-80
2022/10/29 13:14:27;;;;;;;15.20;5.43;;;;;;;;;;4995793;28;20025;-81
2022/10/29 13:16:53;;;;;;;20.20;5.43;;;;;;;;;;5015239;28;20037;-80
2022/10/29 13:19:28;;;;;;;17.80;5.25;;;;;;;;;;5013601;28;20032;-80
2022/10/29 13:21:54;;;;;;;22.70;5.80;;;;;;;;;;5018788;28;20088;-80
2022/10/29 13:24:20;;;;;;;16.52;5.28;;;;;;;;;;5015617;28;20026;-80
2022/10/29 13:27:00;;;;;;;22.08;5.95;;;;;;;;;;5019680;28;20026;-79
2022/10/29 13:29:40;;;;;;;23.13;6.70;;;;;;;;;;5015986;28;20490;-80
2022/10/29 13:32:06;;;;;;;15.07;5.20;;;;;;;;;;5019021;28;20098;-80
2022/10/29 13:34:51;;;;;;;16.88;5.50;;;;;;;;;;5014679;28;20044;-80
2022/10/29 13:37:36;;;;;;;17.75;5.72;;;;;;;;;;5017592;28;20053;-80
2022/10/29 13:40:21;;;;;;;12.70;4.80;;;;;;;;;;5020768;28;20034;-79
2022/10/29 13:43:00;;;;;;;16.50;4.93;;;;;;;;;;5024313;28;20119;-79
2022/10/29 13:45:26;;;;;;;16.25;4.90;;;;;;;;;;5017664;28;20019;-80
2022/10/29 13:47:53;;;;;;;14.10;5.10;;;;;;;;;;5021554;28;20021;-79
2022/10/29 13:50:20;;;;;;;20.13;5.90;;;;;;;;;;5017705;28;20838;-80
2022/10/29 13:52:50;;;;;;;24.05;5.10;;;;;;;;;;5022209;28;20122;-80
2022/10/29 13:55:17;;;;;;;14.40;4.57;;;;;;;;;;5023695;28;20354;-81
2022/10/29 13:57:53;;;;;;;16.42;4.70;;;;;;;;;;5007171;28;20029;-81
2022/10/29 14:00:20;;;;;;;14.40;4.97;;;;;;;;;;5001598;28;20104;-80
2022/10/29 14:02:58;;;;;;;20.67;5.25;;;;;;;;;;5017081;28;20116;-82
2022/10/29 14:05:47;;;;;;;20.83;5.40;;;;;;;;;;5015130;28;20358;-81
2022/10/29 14:08:24;;;;;;;16.80;4.60;;;;;;;;;;4986750;28;20050;-80
2022/10/29 14:10:58;;;;;;;21.48;4.95;;;;;;;;;;5018528;28;20030;-81
2022/10/29 14:13:30;;;;;;;17.77;4.80;;;;;;;;;;5016963;28;20021;-81
2022/10/29 14:16:08;;;;;;;14.18;4.47;;;;;;;;;;5023293;28;20113;-80
2022/10/29 14:18:38;;;;;;;15.43;4.85;;;;;;;;;;5004025;28;20037;-80
2022/10/29 14:21:06;;;;;;;20.65;5.30;;;;;;;;;;5003116;28;20034;-80
2022/10/29 14:23:32;;;;;;;15.73;5.95;;;;;;;;;;5024375;28;20033;-80
2022/10/29 14:26:01;;;;;;;13.18;5.07;;;;;;;;;;5019039;28;20095;-80
2022/10/29 14:28:31;;;;;;;17.15;4.78;;;;;;;;;;5007732;28;20109;-80
2022/10/29 14:31:06;;;;;;;18.40;5.18;;;;;;;;;;5017337;28;20088;-81
2022/10/29 14:33:36;;;;;;;12.50;4.53;;;;;;;;;;5019054;28;20033;-80
2022/10/29 14:36:05;;;;;;;22.25;4.80;;;;;;;;;;5021954;28;20052;-80
2022/10/29 14:38:43;;;;;;;21.98;5.53;;;;;;;;;;5023481;28;20030;-81
2022/10/29 14:41:12;;;;;;;19.83;5.10;;;;;;;;;;5020979;28;20033;-81